createdAt,value
2023-02-13T00:00:48.352Z,7.90
2023-02-13T00:03:17.590Z,7.90
2023-02-13T00:05:45.695Z,8.00
2023-02-13T00:08:13.562Z,7.90
2023-02-13T00:10:41.481Z,7.90
2023-02-13T00:13:09.368Z,7.90
2023-02-13T00:15:37.286Z,7.90
2023-02-13T00:18:05.710Z,7.90
2023-02-13T00:20:34.953Z,7.90
2023-02-13T00:23:03.046Z,7.90
2023-02-13T00:25:30.957Z,7.90
2023-02-13T00:27:58.829Z,7.80
2023-02-13T00:30:26.742Z,7.80
2023-02-13T00:32:54.556Z,7.80
2023-02-13T00:35:25.193Z,7.90
2023-02-13T00:37:55.122Z,7.80
2023-02-13T00:40:25.676Z,7.80
2023-02-13T00:42:53.615Z,7.70
2023-02-13T00:45:21.482Z,7.70
2023-02-13T00:47:49.384Z,7.70
2023-02-13T00:50:17.429Z,7.70
2023-02-13T00:52:45.438Z,7.70
2023-02-13T00:55:15.344Z,7.70
2023-02-13T00:57:43.509Z,7.70
2023-02-13T01:00:14.148Z,7.70
2023-02-13T01:02:42.821Z,7.70
2023-02-13T01:05:10.659Z,7.70
2023-02-13T01:07:38.556Z,7.70
2023-02-13T01:10:08.093Z,7.60
2023-02-13T01:12:37.373Z,7.60
2023-02-13T01:15:08.664Z,7.60
2023-02-13T01:17:36.536Z,7.60
2023-02-13T01:20:04.518Z,7.60
2023-02-13T01:22:32.433Z,7.50
2023-02-13T01:25:00.241Z,7.50
2023-02-13T01:27:32.386Z,7.50
2023-02-13T01:30:01.703Z,7.50
2023-02-13T01:32:30.773Z,7.50
2023-02-13T01:34:58.675Z,7.50
2023-02-13T01:37:26.546Z,7.50
2023-02-13T01:39:56.288Z,7.50
2023-02-13T01:42:27.590Z,7.50
2023-02-13T01:44:57.152Z,7.50
2023-02-13T01:47:30.448Z,7.60
2023-02-13T01:50:07.123Z,7.60
2023-02-13T01:52:36.871Z,7.60
2023-02-13T01:55:06.026Z,7.60
2023-02-13T01:57:35.151Z,7.50
2023-02-13T02:00:07.495Z,7.50
2023-02-13T02:02:51.631Z,7.60
2023-02-13T02:05:25.088Z,7.50
2023-02-13T02:07:54.106Z,7.60
2023-02-13T02:10:24.764Z,7.50
2023-02-13T02:12:59.604Z,7.50
2023-02-13T02:15:29.660Z,7.50
2023-02-13T02:17:58.939Z,7.40
2023-02-13T02:20:38.887Z,7.40
2023-02-13T02:23:53.654Z,7.50
2023-02-13T02:26:49.492Z,7.50
2023-02-13T02:29:44.040Z,7.60
2023-02-13T02:32:36.254Z,7.60
2023-02-13T02:35:18.999Z,7.60
2023-02-13T02:38:00.238Z,7.60
2023-02-13T02:40:37.929Z,7.60
2023-02-13T02:43:22.889Z,7.60
2023-02-13T02:45:57.576Z,7.60
2023-02-13T02:48:50.418Z,7.50
2023-02-13T02:51:25.632Z,7.60
2023-02-13T02:54:24.404Z,7.50
2023-02-13T02:56:55.396Z,7.50
2023-02-13T02:59:46.653Z,7.60
2023-02-13T03:02:33.577Z,7.60
2023-02-13T03:05:22.153Z,7.60
2023-02-13T03:07:50.330Z,7.60
2023-02-13T03:10:46.009Z,7.60
2023-02-13T03:13:21.758Z,7.60
2023-02-13T03:16:09.225Z,7.60
2023-02-13T03:18:57.554Z,7.60
2023-02-13T03:21:48.804Z,7.50
2023-02-13T03:24:26.931Z,7.60
2023-02-13T03:27:02.070Z,7.50
2023-02-13T03:30:01.104Z,7.50
2023-02-13T03:32:37.030Z,7.50
2023-02-13T03:35:34.314Z,7.50
2023-02-13T03:38:11.644Z,7.40
2023-02-13T03:41:02.317Z,7.50
2023-02-13T03:43:33.772Z,7.50
2023-02-13T03:46:03.721Z,7.40
2023-02-13T03:48:52.806Z,7.30
2023-02-13T03:51:27.483Z,7.40
2023-02-13T03:54:00.583Z,7.30
2023-02-13T03:56:50.853Z,7.40
2023-02-13T03:59:23.403Z,7.30
2023-02-13T04:01:57.591Z,7.30
2023-02-13T04:04:32.568Z,7.30
2023-02-13T04:07:03.880Z,7.30
2023-02-13T04:09:35.730Z,7.30
2023-02-13T04:12:10.821Z,7.30
2023-02-13T04:14:44.063Z,7.20
2023-02-13T04:17:17.817Z,7.20
2023-02-13T04:19:45.897Z,7.20
2023-02-13T04:22:14.073Z,7.20
2023-02-13T04:24:43.344Z,7.20
2023-02-13T04:27:13.958Z,7.20
2023-02-13T04:29:42.009Z,7.20
2023-02-13T04:32:11.739Z,7.20
2023-02-13T04:34:39.905Z,7.20
2023-02-13T04:37:07.771Z,7.20
2023-02-13T04:39:35.743Z,7.20
2023-02-13T04:42:05.148Z,7.20
2023-02-13T04:44:33.036Z,7.20
2023-02-13T04:47:00.965Z,7.10
2023-02-13T04:49:28.851Z,7.20
2023-02-13T04:51:56.671Z,7.20
2023-02-13T04:54:24.557Z,7.10
2023-02-13T04:56:52.373Z,7.10
2023-02-13T04:59:21.618Z,7.20
2023-02-13T05:01:49.526Z,7.20
2023-02-13T05:04:17.582Z,7.20
2023-02-13T05:06:46.335Z,7.20
2023-02-13T05:09:14.215Z,7.20
2023-02-13T05:11:42.089Z,7.20
2023-02-13T05:14:11.186Z,7.10
2023-02-13T05:16:40.389Z,7.10
2023-02-13T05:19:08.284Z,7.00
2023-02-13T05:21:53.773Z,7.10
2023-02-13T05:24:21.664Z,7.10
2023-02-13T05:26:49.557Z,7.10
2023-02-13T05:29:20.445Z,7.10
2023-02-13T05:31:51.108Z,7.10
2023-02-13T05:34:19.208Z,7.10
2023-02-13T05:36:47.024Z,7.00
2023-02-13T05:39:15.192Z,7.00
2023-02-13T05:41:43.690Z,7.00
2023-02-13T05:44:12.190Z,7.00
2023-02-13T05:46:41.656Z,7.00
2023-02-13T05:49:13.030Z,7.00
2023-02-13T05:51:40.970Z,7.10
2023-02-13T05:54:09.210Z,7.10
2023-02-13T05:56:37.071Z,7.10
2023-02-13T05:59:05.071Z,7.10
2023-02-13T06:01:33.078Z,7.10
2023-02-13T06:04:03.676Z,7.10
2023-02-13T06:06:33.205Z,7.10
2023-02-13T06:09:01.065Z,7.00
2023-02-13T06:11:29.174Z,7.00
2023-02-13T06:13:57.076Z,7.00
2023-02-13T06:16:25.076Z,7.00
2023-02-13T06:18:52.930Z,7.10
2023-02-13T06:21:22.504Z,7.00
2023-02-13T06:23:52.186Z,7.00
2023-02-13T06:26:20.208Z,7.10
2023-02-13T06:28:48.020Z,7.10
2023-02-13T06:31:15.976Z,7.10
2023-02-13T06:33:43.887Z,7.20
2023-02-13T06:36:11.748Z,7.10
2023-02-13T06:38:39.600Z,7.10
2023-02-13T06:41:09.306Z,7.10
2023-02-13T06:43:39.825Z,7.10
2023-02-13T06:46:09.039Z,7.10
2023-02-13T06:48:37.363Z,7.10
2023-02-13T06:51:05.731Z,7.10
2023-02-13T06:53:33.809Z,7.10
2023-02-13T06:56:06.096Z,7.00
2023-02-13T06:58:35.666Z,7.00
2023-02-13T07:01:03.652Z,7.10
2023-02-13T07:03:31.492Z,7.10
2023-02-13T07:05:59.403Z,7.10
2023-02-13T07:08:27.394Z,7.10
2023-02-13T07:10:55.755Z,7.10
2023-02-13T07:13:23.718Z,7.10
2023-02-13T07:15:53.073Z,7.10
2023-02-13T07:18:20.874Z,7.10
2023-02-13T07:20:48.764Z,7.10
2023-02-13T07:23:16.626Z,7.10
2023-02-13T07:25:44.502Z,7.20
2023-02-13T07:28:13.342Z,7.20
2023-02-13T07:30:41.291Z,7.20
2023-02-13T07:33:12.741Z,7.20
2023-02-13T07:35:46.823Z,7.20
2023-02-13T07:38:14.787Z,7.20
2023-02-13T07:40:42.613Z,7.30
2023-02-13T07:43:10.714Z,7.30
2023-02-13T07:45:38.492Z,7.30
2023-02-13T07:48:06.618Z,7.30
2023-02-13T07:50:35.787Z,7.30
2023-02-13T07:53:04.021Z,7.30
2023-02-13T07:55:32.606Z,7.20
2023-02-13T07:58:01.730Z,7.20
2023-02-13T08:00:29.558Z,7.20
2023-02-13T08:03:00.282Z,7.30
2023-02-13T08:05:28.674Z,7.20
2023-02-13T08:07:57.960Z,7.30
2023-02-13T08:10:44.198Z,7.30
2023-02-13T08:13:15.038Z,7.30
2023-02-13T08:15:44.382Z,7.30
2023-02-13T08:18:12.295Z,7.40
2023-02-13T08:20:40.340Z,7.40
2023-02-13T08:23:12.130Z,7.40
2023-02-13T08:25:40.518Z,7.40
2023-02-13T08:28:08.517Z,7.40
2023-02-13T08:30:36.422Z,7.40
2023-02-13T08:33:04.311Z,7.30
2023-02-13T08:35:32.194Z,7.30
2023-02-13T08:38:03.757Z,7.40
2023-02-13T08:40:33.354Z,7.40
2023-02-13T08:43:02.187Z,7.40
2023-02-13T08:45:30.655Z,7.40
2023-02-13T08:47:59.222Z,7.60
2023-02-13T08:50:28.662Z,7.60
2023-02-13T08:52:56.793Z,7.60
2023-02-13T08:55:24.580Z,7.50
2023-02-13T08:57:53.778Z,7.50
2023-02-13T09:00:22.505Z,7.50
2023-02-13T09:02:50.467Z,7.50
2023-02-13T09:05:18.352Z,7.50
2023-02-13T09:07:46.305Z,7.40
2023-02-13T09:10:14.160Z,7.40
2023-02-13T09:12:42.100Z,7.40
2023-02-13T09:15:11.923Z,7.50
2023-02-13T09:17:39.939Z,7.50
2023-02-13T09:20:08.746Z,7.50
2023-02-13T09:22:36.739Z,7.40
2023-02-13T09:25:04.837Z,7.50
2023-02-13T09:27:33.531Z,7.60
2023-02-13T09:30:01.453Z,7.50
2023-02-13T09:32:31.659Z,7.50
2023-02-13T09:35:00.413Z,7.60
2023-02-13T09:37:28.512Z,7.60
2023-02-13T09:39:56.453Z,7.60
2023-02-13T09:42:28.736Z,7.60
2023-02-13T09:45:00.492Z,7.60
2023-02-13T09:47:32.924Z,7.60
2023-02-13T09:50:04.824Z,7.60
2023-02-13T09:52:36.346Z,7.60
2023-02-13T09:55:07.880Z,7.60
2023-02-13T09:57:43.084Z,7.60
2023-02-13T10:00:16.268Z,7.70
2023-02-13T10:03:14.291Z,7.70
2023-02-13T10:05:54.307Z,7.70
2023-02-13T10:08:33.890Z,7.60
2023-02-13T10:11:14.601Z,7.60
2023-02-13T10:14:06.379Z,7.60
2023-02-13T10:16:39.028Z,7.60
2023-02-13T10:19:17.110Z,7.60
2023-02-13T10:21:50.830Z,7.60
2023-02-13T10:24:28.371Z,7.70
2023-02-13T10:26:58.727Z,7.60
2023-02-13T10:29:55.521Z,7.70
2023-02-13T10:32:30.294Z,7.70
2023-02-13T10:35:03.284Z,7.70
2023-02-13T10:37:31.646Z,7.70
2023-02-13T10:39:59.465Z,7.60
2023-02-13T10:42:39.299Z,7.70
2023-02-13T10:45:24.098Z,7.70
2023-02-13T10:48:07.994Z,7.70
2023-02-13T10:50:44.120Z,7.80
2023-02-13T10:53:20.877Z,7.80
2023-02-13T10:56:01.767Z,7.80
2023-02-13T10:58:49.750Z,7.80
2023-02-13T11:01:25.023Z,7.80
2023-02-13T11:04:06.456Z,7.90
2023-02-13T11:06:37.725Z,7.80
2023-02-13T11:09:08.409Z,7.80
2023-02-13T11:11:38.034Z,7.80
2023-02-13T11:14:12.563Z,7.90
2023-02-13T11:16:59.256Z,7.80
2023-02-13T11:19:33.240Z,7.90
2023-02-13T11:22:05.608Z,7.90
2023-02-13T11:24:33.759Z,7.90
2023-02-13T11:27:08.634Z,7.90
2023-02-13T11:29:38.106Z,8.00
2023-02-13T11:32:18.728Z,8.10
2023-02-13T11:34:47.823Z,8.20
2023-02-13T11:37:21.712Z,8.20
2023-02-13T11:39:51.748Z,8.30
2023-02-13T11:42:30.137Z,8.30
2023-02-13T11:45:02.234Z,8.20
2023-02-13T11:47:39.852Z,8.10
2023-02-13T11:50:24.771Z,8.30
2023-02-13T11:52:58.485Z,8.30
2023-02-13T11:55:31.789Z,8.30
2023-02-13T11:58:01.626Z,8.30
2023-02-13T12:00:37.649Z,8.30
2023-02-13T12:03:27.151Z,8.20
2023-02-13T12:06:03.962Z,8.30
2023-02-13T12:08:35.437Z,8.40
2023-02-13T12:11:09.556Z,8.40
2023-02-13T12:13:39.870Z,8.40
2023-02-13T12:16:15.243Z,8.40
2023-02-13T12:18:45.831Z,8.40
2023-02-13T12:21:26.945Z,8.50
2023-02-13T12:24:02.822Z,8.40
2023-02-13T12:26:36.248Z,8.40
2023-02-13T12:29:33.634Z,8.40
2023-02-13T12:32:16.449Z,8.50
2023-02-13T12:35:04.872Z,8.50
2023-02-13T12:38:00.009Z,8.50
2023-02-13T12:40:46.668Z,8.50
2023-02-13T12:43:29.314Z,8.60
2023-02-13T12:46:03.664Z,8.50
2023-02-13T12:48:40.133Z,8.50
2023-02-13T12:51:25.253Z,8.50
2023-02-13T12:54:03.951Z,8.40
2023-02-13T12:56:46.627Z,8.40
2023-02-13T12:59:24.292Z,8.40
2023-02-13T13:02:15.452Z,8.30
2023-02-13T13:04:54.100Z,8.30
2023-02-13T13:07:41.312Z,8.20
2023-02-13T13:10:32.754Z,8.20
2023-02-13T13:13:12.018Z,8.20
2023-02-13T13:15:47.265Z,8.20
2023-02-13T13:18:28.767Z,8.20
2023-02-13T13:21:02.943Z,8.20
2023-02-13T13:23:36.858Z,8.20
2023-02-13T13:26:16.720Z,8.20
2023-02-13T13:28:49.813Z,8.30
2023-02-13T13:31:18.148Z,8.30
2023-02-13T13:33:48.106Z,8.40
2023-02-13T13:36:24.843Z,8.40
2023-02-13T13:39:03.765Z,8.40
2023-02-13T13:41:39.653Z,8.40
2023-02-13T13:44:36.600Z,8.40
2023-02-13T13:47:10.264Z,8.20
2023-02-13T13:49:45.917Z,8.20
2023-02-13T13:52:23.223Z,8.20
2023-02-13T13:54:53.469Z,8.20
2023-02-13T13:57:22.381Z,8.30
2023-02-13T14:00:23.326Z,8.30
2023-02-13T14:02:53.120Z,8.30
2023-02-13T14:05:30.125Z,8.30
2023-02-13T14:07:59.522Z,8.20
2023-02-13T14:11:07.249Z,8.20
2023-02-13T14:13:37.800Z,8.20
2023-02-13T14:16:10.844Z,8.20
2023-02-13T14:18:44.377Z,8.20
2023-02-13T14:21:13.091Z,8.20
2023-02-13T14:23:53.095Z,8.20
2023-02-13T14:26:39.593Z,8.20
2023-02-13T14:29:28.155Z,8.10
2023-02-13T14:32:03.606Z,8.00
2023-02-13T14:34:36.328Z,8.00
2023-02-13T14:37:20.532Z,8.00
2023-02-13T14:40:28.310Z,7.90
2023-02-13T14:42:59.551Z,7.90
2023-02-13T14:45:32.252Z,7.80
2023-02-13T14:48:07.262Z,7.80
2023-02-13T14:50:45.742Z,7.90
2023-02-13T14:53:22.514Z,7.80
2023-02-13T14:55:57.650Z,7.80
2023-02-13T14:58:29.928Z,7.80
2023-02-13T15:01:03.541Z,7.80
2023-02-13T15:03:39.074Z,7.80
2023-02-13T15:06:25.065Z,7.70
2023-02-13T15:08:54.666Z,7.60
2023-02-13T15:11:44.033Z,7.60
2023-02-13T15:14:23.730Z,7.50
2023-02-13T15:16:56.052Z,7.50
2023-02-13T15:19:26.677Z,7.50
2023-02-13T15:21:58.531Z,7.50
2023-02-13T15:24:27.265Z,7.40
2023-02-13T15:27:01.968Z,7.50
2023-02-13T15:29:44.207Z,7.50
2023-02-13T15:32:20.100Z,7.60
2023-02-13T15:34:49.941Z,7.50
2023-02-13T15:37:22.585Z,7.50
2023-02-13T15:39:50.463Z,7.50
2023-02-13T15:42:18.323Z,7.50
2023-02-13T15:44:48.699Z,7.50
2023-02-13T15:47:21.948Z,7.40
2023-02-13T15:49:51.651Z,7.40
2023-02-13T15:52:23.856Z,7.40
2023-02-13T15:54:54.782Z,7.40
2023-02-13T15:57:24.322Z,7.50
2023-02-13T15:59:53.981Z,7.50
2023-02-13T16:02:24.787Z,7.50
2023-02-13T16:04:56.547Z,7.50
2023-02-13T16:07:24.502Z,7.40
2023-02-13T16:09:52.593Z,7.30
2023-02-13T16:12:23.923Z,7.20
2023-02-13T16:14:55.367Z,7.20
2023-02-13T16:17:29.837Z,7.20
2023-02-13T16:20:02.765Z,7.20
2023-02-13T16:22:34.379Z,7.20
2023-02-13T16:25:14.928Z,7.10
2023-02-13T16:27:46.002Z,7.00
2023-02-13T16:30:34.990Z,7.00
2023-02-13T16:33:21.673Z,7.00
2023-02-13T16:35:54.927Z,7.00
2023-02-13T16:38:32.145Z,6.90
2023-02-13T16:41:02.208Z,6.90
2023-02-13T16:43:38.641Z,7.00
2023-02-13T16:46:31.685Z,7.00
2023-02-13T16:49:22.612Z,7.10
2023-02-13T16:51:58.344Z,7.10
2023-02-13T16:54:30.216Z,7.10
2023-02-13T16:57:00.109Z,7.10
2023-02-13T16:59:32.134Z,7.10
2023-02-13T17:02:18.977Z,7.00
2023-02-13T17:04:49.859Z,7.00
2023-02-13T17:07:22.941Z,7.00
2023-02-13T17:09:54.870Z,7.00
2023-02-13T17:12:23.871Z,7.10
2023-02-13T17:14:52.224Z,7.00
2023-02-13T17:17:22.732Z,7.00
2023-02-13T17:19:51.324Z,7.00
2023-02-13T17:22:26.040Z,7.00
2023-02-13T17:24:53.905Z,7.00
2023-02-13T17:27:22.839Z,6.90
2023-02-13T17:29:50.838Z,6.90
2023-02-13T17:32:20.506Z,7.00
2023-02-13T17:34:48.457Z,7.00
2023-02-13T17:37:23.551Z,6.90
2023-02-13T17:39:52.388Z,6.80
2023-02-13T17:42:24.287Z,6.90
2023-02-13T17:44:52.725Z,6.90
2023-02-13T17:47:21.497Z,6.90
2023-02-13T17:49:49.886Z,6.90
2023-02-13T17:52:21.874Z,6.90
2023-02-13T17:54:50.176Z,6.80
2023-02-13T17:57:19.392Z,6.80
2023-02-13T17:59:48.372Z,6.80
2023-02-13T18:02:18.072Z,6.80
2023-02-13T18:04:46.627Z,6.80
2023-02-13T18:07:16.410Z,6.90
2023-02-13T18:09:46.022Z,6.90
2023-02-13T18:12:15.861Z,7.00
2023-02-13T18:14:44.085Z,7.00
2023-02-13T18:17:12.407Z,7.00
2023-02-13T18:19:40.869Z,7.00
2023-02-13T18:22:10.098Z,6.90
2023-02-13T18:24:40.597Z,6.90
2023-02-13T18:27:11.238Z,6.90
2023-02-13T18:29:39.625Z,6.80
2023-02-13T18:32:10.334Z,6.80
2023-02-13T18:34:39.419Z,6.80
2023-02-13T18:37:08.094Z,6.80
2023-02-13T18:39:36.387Z,6.70
2023-02-13T18:42:04.471Z,6.70
2023-02-13T18:44:33.672Z,6.80
2023-02-13T18:47:01.627Z,6.80
2023-02-13T18:49:29.582Z,6.70
2023-02-13T18:51:57.788Z,6.70
2023-02-13T18:54:25.774Z,6.70
2023-02-13T18:56:53.732Z,6.70
2023-02-13T18:59:22.914Z,6.70
2023-02-13T19:01:52.195Z,6.70
2023-02-13T19:04:20.099Z,6.60
2023-02-13T19:06:47.978Z,6.60
2023-02-13T19:09:15.913Z,6.60
2023-02-13T19:11:44.379Z,6.50
2023-02-13T19:14:14.875Z,6.50
2023-02-13T19:16:43.065Z,6.50
2023-02-13T19:19:12.545Z,6.50
2023-02-13T19:21:41.166Z,6.50
2023-02-13T19:24:10.387Z,6.50
2023-02-13T19:26:38.726Z,6.50
2023-02-13T19:29:06.574Z,6.50
2023-02-13T19:31:35.370Z,6.60
2023-02-13T19:34:05.583Z,6.60
2023-02-13T19:36:34.882Z,6.50
2023-02-13T19:39:04.993Z,6.50
2023-02-13T19:41:33.735Z,6.40
2023-02-13T19:44:01.730Z,6.40
2023-02-13T19:46:31.714Z,6.30
2023-02-13T19:49:00.503Z,6.30
2023-02-13T19:51:30.098Z,6.30
2023-02-13T19:54:00.663Z,6.30
2023-02-13T19:56:29.705Z,6.30
2023-02-13T19:58:58.167Z,6.30
2023-02-13T20:01:28.736Z,6.30
2023-02-13T20:03:56.717Z,6.30
2023-02-13T20:06:27.694Z,6.30
2023-02-13T20:08:58.444Z,6.30
2023-02-13T20:11:27.928Z,6.30
2023-02-13T20:13:57.000Z,6.30
2023-02-13T20:16:25.198Z,6.40
2023-02-13T20:18:53.775Z,6.40
2023-02-13T20:21:22.045Z,6.40
2023-02-13T20:23:52.302Z,6.40
2023-02-13T20:26:20.443Z,6.50
2023-02-13T20:28:49.589Z,6.40
2023-02-13T20:31:19.431Z,6.50
2023-02-13T20:33:48.087Z,6.50
2023-02-13T20:36:17.855Z,6.50
2023-02-13T20:38:46.097Z,6.50
2023-02-13T20:41:16.163Z,6.50
2023-02-13T20:43:44.498Z,6.60
2023-02-13T20:46:15.879Z,6.60
2023-02-13T20:48:45.661Z,6.60
2023-02-13T20:51:15.597Z,6.50
2023-02-13T20:53:44.335Z,6.60
2023-02-13T20:56:13.745Z,6.60
2023-02-13T20:58:42.975Z,6.70
2023-02-13T21:01:16.576Z,6.70
2023-02-13T21:03:47.797Z,6.70
2023-02-13T21:06:15.702Z,6.60
2023-02-13T21:08:44.453Z,6.50
2023-02-13T21:11:12.374Z,6.60
2023-02-13T21:13:40.289Z,6.50
2023-02-13T21:16:10.259Z,6.50
2023-02-13T21:18:40.368Z,6.60
2023-02-13T21:21:09.781Z,6.60
2023-02-13T21:23:38.255Z,6.60
2023-02-13T21:26:08.037Z,6.60
2023-02-13T21:28:38.376Z,6.60
2023-02-13T21:31:07.400Z,6.60
2023-02-13T21:33:35.343Z,6.60
2023-02-13T21:36:07.404Z,6.50
2023-02-13T21:38:36.351Z,6.60
2023-02-13T21:41:07.999Z,6.60
2023-02-13T21:43:37.854Z,6.60
2023-02-13T21:46:08.386Z,6.40
2023-02-13T21:48:36.288Z,6.40
2023-02-13T21:51:08.231Z,6.50
2023-02-13T21:53:36.188Z,6.50
2023-02-13T21:56:04.606Z,6.40
2023-02-13T21:58:33.755Z,6.40
2023-02-13T22:01:02.299Z,6.50
2023-02-13T22:03:30.319Z,6.50
2023-02-13T22:05:58.134Z,6.50
2023-02-13T22:08:27.399Z,6.60
2023-02-13T22:10:56.941Z,6.60
2023-02-13T22:13:25.460Z,6.60
2023-02-13T22:16:00.712Z,6.60
2023-02-13T22:18:28.954Z,6.50
2023-02-13T22:20:57.004Z,6.50
2023-02-13T22:23:25.337Z,6.50
2023-02-13T22:25:54.493Z,6.50
2023-02-13T22:28:22.392Z,6.50
2023-02-13T22:30:50.271Z,6.50
2023-02-13T22:33:18.260Z,6.60
2023-02-13T22:35:46.656Z,6.50
2023-02-13T22:38:14.616Z,6.50
2023-02-13T22:40:42.512Z,6.40
2023-02-13T22:43:11.925Z,6.40
2023-02-13T22:45:39.948Z,6.30
2023-02-13T22:48:08.159Z,6.30
2023-02-13T22:50:36.321Z,6.30
2023-02-13T22:53:04.756Z,6.30
2023-02-13T22:55:33.574Z,6.40
2023-02-13T22:58:01.360Z,6.40
2023-02-13T23:00:30.635Z,6.40
2023-02-13T23:02:58.486Z,6.30
2023-02-13T23:05:26.341Z,6.20
2023-02-13T23:07:54.139Z,6.20
2023-02-13T23:10:25.749Z,6.10
2023-02-13T23:12:52.748Z,6.20
2023-02-13T23:15:21.024Z,6.20
2023-02-13T23:18:07.986Z,6.20
2023-02-13T23:20:35.932Z,6.20
2023-02-13T23:23:04.918Z,6.30
2023-02-13T23:25:32.982Z,6.30
2023-02-13T23:28:00.787Z,6.40
2023-02-13T23:30:30.038Z,6.30
2023-02-13T23:33:00.326Z,6.40
2023-02-13T23:35:28.594Z,6.30
2023-02-13T23:37:56.383Z,6.20
2023-02-13T23:40:24.297Z,6.20
2023-02-13T23:42:52.127Z,6.20
2023-02-13T23:45:20.317Z,6.20
2023-02-13T23:47:48.192Z,6.20
2023-02-13T23:50:17.614Z,6.30
2023-02-13T23:52:45.489Z,6.30
2023-02-13T23:55:13.407Z,6.30
2023-02-13T23:57:41.829Z,6.30
